Kununurra Argyle Aerodrome, Australia
Current Conditions -  °F | °C
As of 5:00 PM on Friday 24 Oct 2014 (Local Time) from YARG Reporting Station
Broken Clouds Broken Clouds  
Wind Chill: 99°   Ceiling: 8500
Heat Index: 99°   Visibility: 6mi
Dew Point: 52°   Wind: 8mph
Humidity: 21%   Direction: 30°NNE
Pressure: 29.8"   Gusts: NA
Location:  16.63°S, 128.45°E
Report Text: YARG 240900Z AUTO 03007KT 9999 // SCT074 BKN085 37/11 Q1009
Loading
Personal Weather Stations






























Interactive Weather Map
Tropical Storm Tracking
New forecast layout! Learn more

10-Day Weather Forecast

Advertisements
Track Severe Weather on mobile